Time;durP1;ratioP1;P1;durP2;ratioP2;P2;SDS_P1;SDS_P2;PMS_P1;PMS_P2;Temp;Humidity;BMP_temperature;BMP_pressure;BME280_temperature;BME280_humidity;BME280_pressure;Samples;Min_cycle;Max_cycle;Signal;HPM_P1;HPM_P2
2023/08/03 00:02:16;;;;;;;2.33;1.00;;;;;;;17.17;89.53;98896.69;5057474;28;20102;-84
2023/08/03 00:04:41;;;;;;;2.35;1.10;;;;;;;17.15;89.25;98896.84;5045018;28;20033;-84
2023/08/03 00:07:06;;;;;;;2.50;1.00;;;;;;;17.15;88.91;98894.16;5041367;28;20036;-85
2023/08/03 00:09:31;;;;;;;1.40;1.17;;;;;;;17.18;89.23;98895.69;5051547;28;20332;-84
2023/08/03 00:11:57;;;;;;;1.70;1.50;;;;;;;17.18;89.42;98907.22;5057994;28;20035;-84
2023/08/03 00:14:22;;;;;;;2.60;1.30;;;;;;;17.17;90.00;98902.88;5050306;28;20035;-84
2023/08/03 00:16:47;;;;;;;2.10;1.48;;;;;;;17.20;90.07;98907.06;5044742;28;20024;-85
2023/08/03 00:19:12;;;;;;;1.70;1.20;;;;;;;17.22;89.64;98908.59;5049384;28;20752;-84
2023/08/03 00:21:38;;;;;;;1.90;1.42;;;;;;;17.26;89.31;98906.47;5055968;28;20399;-84
2023/08/03 00:24:03;;;;;;;4.93;1.90;;;;;;;17.27;89.06;98911.66;5035662;28;20108;-84
2023/08/03 00:26:29;;;;;;;2.22;1.98;;;;;;;17.26;88.91;98896.63;5041818;28;20037;-84
2023/08/03 00:28:54;;;;;;;5.47;2.70;;;;;;;17.30;88.87;98918.53;5046692;28;20027;-84
2023/08/03 00:31:20;;;;;;;4.90;2.55;;;;;;;17.33;88.83;98924.41;5047302;28;20031;-85
2023/08/03 00:33:45;;;;;;;3.78;3.30;;;;;;;17.32;88.83;98920.06;5039385;28;20024;-84
2023/08/03 00:36:10;;;;;;;6.40;3.20;;;;;;;17.33;89.10;98932.41;5044104;28;20519;-84
2023/08/03 00:38:35;;;;;;;6.65;3.70;;;;;;;17.35;89.13;98940.28;5040616;28;20029;-85
2023/08/03 00:41:01;;;;;;;7.68;3.88;;;;;;;17.38;88.71;98942.66;5043905;28;20028;-84
2023/08/03 00:43:26;;;;;;;7.93;4.72;;;;;;;17.43;88.62;98947.53;5033265;28;20080;-84
2023/08/03 00:45:51;;;;;;;9.05;5.05;;;;;;;17.45;88.42;98949.06;5050750;28;20040;-84
2023/08/03 00:48:19;;;;;;;6.35;4.55;;;;;;;17.44;88.61;98959.88;5036841;28;20404;-84
2023/08/03 00:50:44;;;;;;;9.68;5.15;;;;;;;17.49;88.79;98971.00;5036738;28;20024;-84
2023/08/03 00:53:10;;;;;;;10.93;5.22;;;;;;;17.48;88.84;98972.78;5057228;28;20041;-84
2023/08/03 00:55:35;;;;;;;5.60;4.85;;;;;;;17.45;89.25;98980.28;5046132;28;20495;-84
2023/08/03 00:58:01;;;;;;;8.73;4.40;;;;;;;17.46;89.70;98987.31;5055107;28;20099;-83
2023/08/03 01:00:26;;;;;;;7.35;4.28;;;;;;;17.37;90.56;98981.03;5044607;28;20467;-84
2023/08/03 01:02:52;;;;;;;7.15;5.15;;;;;;;17.35;91.01;98985.69;5046539;28;20103;-84
2023/08/03 01:05:18;;;;;;;9.35;5.82;;;;;;;17.34;91.32;99000.03;5048134;28;20029;-84
2023/08/03 01:07:43;;;;;;;7.70;5.72;;;;;;;17.31;91.60;99006.53;5043912;28;20030;-84
2023/08/03 01:10:09;;;;;;;6.63;5.65;;;;;;;17.28;91.49;99006.81;5035397;28;20040;-84
2023/08/03 01:12:34;;;;;;;12.73;7.00;;;;;;;17.25;92.30;99011.59;5052649;28;20033;-84
2023/08/03 01:14:59;;;;;;;11.90;6.90;;;;;;;17.16;92.41;99009.81;5049501;28;20388;-84
2023/08/03 01:17:25;;;;;;;9.00;7.00;;;;;;;17.18;92.91;99026.56;5047421;28;20117;-85
2023/08/03 01:19:50;;;;;;;13.02;7.28;;;;;;;17.17;92.62;99028.38;5038104;28;20498;-84
2023/08/03 01:22:16;;;;;;;9.30;5.85;;;;;;;17.15;92.79;99030.34;5027603;28;20071;-84
2023/08/03 01:24:42;;;;;;;13.25;8.05;;;;;;;17.04;93.34;99004.69;5041584;28;20047;-84
2023/08/03 01:27:08;;;;;;;16.00;8.07;;;;;;;17.00;94.13;99030.00;5031242;28;20025;-86
2023/08/03 01:29:33;;;;;;;13.63;7.18;;;;;;;17.06;93.68;99023.22;5050522;28;20025;-86
2023/08/03 01:32:00;;;;;;;10.98;7.10;;;;;;;16.98;93.67;99032.00;5044659;28;20020;-86
2023/08/03 01:34:26;;;;;;;12.85;7.70;;;;;;;17.03;94.53;99056.41;5041477;28;20090;-86
2023/08/03 01:36:53;;;;;;;9.50;6.93;;;;;;;17.04;93.94;99054.59;5033576;28;20111;-86
2023/08/03 01:39:20;;;;;;;13.23;7.22;;;;;;;17.00;94.60;99054.03;5041909;28;20559;-86
2023/08/03 01:41:46;;;;;;;12.07;6.65;;;;;;;17.08;93.70;99047.97;5038844;28;20286;-85
2023/08/03 01:44:24;;;;;;;7.65;5.72;;;;;;;17.16;93.72;99053.41;5041916;28;20517;-85
2023/08/03 01:46:50;;;;;;;8.30;5.60;;;;;;;17.13;93.22;99056.38;5043465;28;20048;-85
2023/08/03 01:49:16;;;;;;;9.35;6.05;;;;;;;17.09;93.20;99030.94;5046202;28;20036;-85
2023/08/03 01:51:42;;;;;;;8.93;5.72;;;;;;;17.13;92.81;99050.19;5037117;28;20434;-85
2023/08/03 01:54:10;;;;;;;12.05;5.97;;;;;;;17.14;93.14;99052.72;5048710;28;20390;-86
2023/08/03 01:56:35;;;;;;;13.30;5.05;;;;;;;17.13;92.90;99044.84;5043084;28;20060;-85
2023/08/03 01:59:01;;;;;;;10.90;5.40;;;;;;;17.17;92.74;99059.59;5053771;28;20103;-84
2023/08/03 02:01:26;;;;;;;7.53;4.80;;;;;;;17.11;92.70;99047.66;5037615;28;20051;-85
2023/08/03 02:03:51;;;;;;;7.45;3.92;;;;;;;17.09;92.94;99052.31;5047216;28;20021;-85
2023/08/03 02:06:16;;;;;;;7.95;3.33;;;;;;;17.14;92.62;99063.38;5039626;28;20115;-85
2023/08/03 02:08:42;;;;;;;4.57;2.80;;;;;;;17.09;92.54;99055.81;5052606;28;20027;-85
2023/08/03 02:11:07;;;;;;;7.20;2.55;;;;;;;17.13;92.88;99060.88;5033274;28;20090;-84
2023/08/03 02:13:33;;;;;;;3.95;2.28;;;;;;;17.12;93.09;99044.03;5058912;28;20024;-85
2023/08/03 02:16:01;;;;;;;6.90;3.20;;;;;;;17.08;93.23;99064.00;5046885;28;20021;-85
2023/08/03 02:18:29;;;;;;;7.88;3.05;;;;;;;17.14;92.83;99062.56;5042928;28;20512;-86
2023/08/03 02:20:55;;;;;;;5.07;3.22;;;;;;;17.20;92.61;99049.44;5038662;28;20116;-85
2023/08/03 02:23:20;;;;;;;7.45;3.60;;;;;;;17.21;92.62;99075.19;5049251;28;20061;-85
2023/08/03 02:25:46;;;;;;;10.45;3.47;;;;;;;17.25;92.01;99060.53;5052758;28;20052;-85
2023/08/03 02:28:11;;;;;;;15.23;4.22;;;;;;;17.31;91.91;99064.44;5040765;28;20047;-85
2023/08/03 02:30:37;;;;;;;12.63;4.15;;;;;;;17.30;91.32;99049.41;5042638;28;20036;-86
2023/08/03 02:33:02;;;;;;;7.15;3.95;;;;;;;17.29;91.50;99059.25;5044899;28;20548;-86
2023/08/03 02:35:28;;;;;;;8.55;3.92;;;;;;;17.33;91.56;99060.63;5035767;28;20116;-85
2023/08/03 02:37:53;;;;;;;12.05;3.70;;;;;;;17.31;91.22;99051.09;5054280;28;20550;-85
2023/08/03 02:40:18;;;;;;;13.02;4.40;;;;;;;17.29;90.98;99053.91;5041979;28;20029;-85
2023/08/03 02:42:43;;;;;;;13.05;4.30;;;;;;;17.32;90.75;99063.44;5042144;28;20056;-85
2023/08/03 02:45:11;;;;;;;13.23;4.15;;;;;;;17.36;90.32;99053.31;5037964;28;20049;-84
2023/08/03 02:47:36;;;;;;;11.40;4.43;;;;;;;17.26;90.85;99032.84;5042872;28;20029;-85
2023/08/03 02:50:02;;;;;;;15.68;4.18;;;;;;;17.37;90.33;99049.66;5039737;28;20021;-85
2023/08/03 02:52:27;;;;;;;10.00;4.07;;;;;;;17.29;90.24;99053.06;5051274;28;20104;-85
2023/08/03 02:54:52;;;;;;;11.68;4.15;;;;;;;17.20;91.05;99040.59;5051355;28;20047;-85
2023/08/03 02:57:18;;;;;;;10.48;4.07;;;;;;;17.21;90.40;99048.47;5050847;28;20094;-85
2023/08/03 02:59:43;;;;;;;12.23;4.50;;;;;;;17.19;90.51;99053.09;5042385;28;20543;-83
2023/08/03 03:02:08;;;;;;;15.05;4.47;;;;;;;17.19;90.76;99057.59;5049580;28;20036;-84
2023/08/03 03:04:34;;;;;;;10.40;4.50;;;;;;;17.15;91.84;99058.88;5055094;28;20035;-84
2023/08/03 03:06:59;;;;;;;15.57;4.65;;;;;;;17.17;91.42;99072.94;5046216;28;20028;-84
2023/08/03 03:09:24;;;;;;;12.20;4.85;;;;;;;17.22;91.06;99070.69;5049104;28;20044;-84
2023/08/03 03:11:51;;;;;;;12.23;3.90;;;;;;;17.20;90.97;99073.47;5043921;28;20106;-84
2023/08/03 03:14:16;;;;;;;10.55;3.70;;;;;;;17.26;90.10;99072.06;5042593;28;20041;-85
2023/08/03 03:16:42;;;;;;;14.35;4.43;;;;;;;17.27;90.22;99079.09;5044473;28;20028;-86
2023/08/03 03:19:07;;;;;;;10.20;3.88;;;;;;;17.24;90.42;99080.22;5046170;28;20503;-85
2023/08/03 03:21:32;;;;;;;15.32;4.38;;;;;;;17.28;90.24;99086.94;5047144;28;20021;-83
2023/08/03 03:23:57;;;;;;;12.90;4.20;;;;;;;17.29;89.99;99093.97;5039223;28;20024;-84
2023/08/03 03:26:23;;;;;;;11.30;4.00;;;;;;;17.28;90.21;99088.78;5048401;28;20065;-84
2023/08/03 03:28:48;;;;;;;6.88;3.72;;;;;;;17.18;91.43;99074.63;5047845;28;20036;-85
2023/08/03 03:31:13;;;;;;;10.18;4.25;;;;;;;17.10;91.67;99088.69;5033904;28;20032;-83
2023/08/03 03:33:38;;;;;;;7.72;3.45;;;;;;;17.09;91.76;99095.88;5039965;28;20036;-83
2023/08/03 03:36:04;;;;;;;8.63;3.50;;;;;;;17.17;90.73;99094.31;5044314;28;20028;-85
2023/08/03 03:38:29;;;;;;;6.60;3.28;;;;;;;17.11;91.58;99085.03;5046595;28;20029;-87
2023/08/03 03:40:54;;;;;;;11.52;3.75;;;;;;;16.99;91.77;99083.56;5042014;28;20020;-85
2023/08/03 03:43:20;;;;;;;8.15;2.42;;;;;;;17.03;91.66;99107.16;5034293;28;20074;-85
2023/08/03 03:45:45;;;;;;;8.85;3.45;;;;;;;16.91;92.53;99118.13;5052739;28;20032;-84
2023/08/03 03:48:10;;;;;;;12.43;3.58;;;;;;;16.86;93.28;99115.88;5041901;28;20052;-84
2023/08/03 03:50:35;;;;;;;9.98;4.10;;;;;;;16.99;92.84;99123.59;5037416;28;20033;-85
2023/08/03 03:53:01;;;;;;;16.27;4.15;;;;;;;16.97;93.34;99130.88;5045338;28;20029;-85
2023/08/03 03:55:26;;;;;;;9.45;4.00;;;;;;;17.02;93.69;99149.97;5049977;28;20366;-85
2023/08/03 03:57:51;;;;;;;9.90;4.35;;;;;;;16.97;93.06;99147.78;5042492;28;20033;-86
2023/08/03 04:00:17;;;;;;;7.70;3.63;;;;;;;16.96;93.63;99155.91;5040847;28;20364;-86
2023/08/03 04:02:42;;;;;;;11.20;3.40;;;;;;;16.97;93.64;99146.91;5039479;28;20020;-85
2023/08/03 04:05:07;;;;;;;9.02;3.33;;;;;;;16.98;93.57;99164.63;5043833;28;20661;-85
2023/08/03 04:07:33;;;;;;;13.82;3.58;;;;;;;16.98;93.68;99154.78;5046399;28;20029;-85
2023/08/03 04:09:58;;;;;;;10.50;3.55;;;;;;;16.97;93.50;99152.25;5047174;28;20029;-85
2023/08/03 04:12:23;;;;;;;7.85;3.67;;;;;;;17.01;93.68;99157.16;5052101;28;20412;-85
2023/08/03 04:14:48;;;;;;;13.20;3.83;;;;;;;17.02;93.39;99150.84;5042258;28;20021;-86
2023/08/03 04:17:13;;;;;;;6.20;2.58;;;;;;;17.03;92.94;99154.38;5047074;28;20051;-86
2023/08/03 04:19:39;;;;;;;5.97;3.13;;;;;;;17.01;93.36;99153.66;5035018;28;20374;-86
2023/08/03 04:22:04;;;;;;;5.40;3.05;;;;;;;17.02;93.22;99158.88;5041397;28;20052;-87
2023/08/03 04:24:30;;;;;;;5.53;2.97;;;;;;;16.99;93.44;99169.81;5037250;28;20036;-85
2023/08/03 04:26:55;;;;;;;7.68;3.50;;;;;;;17.04;93.21;99174.72;5044237;28;20095;-85
2023/08/03 04:29:21;;;;;;;8.45;3.33;;;;;;;17.08;93.40;99184.97;5049775;28;20108;-85
2023/08/03 04:31:46;;;;;;;5.78;3.00;;;;;;;17.02;93.54;99174.00;5048646;28;20041;-85
2023/08/03 04:34:11;;;;;;;7.00;3.42;;;;;;;17.03;93.95;99197.91;5038442;28;20060;-85
2023/08/03 04:36:37;;;;;;;9.52;3.58;;;;;;;16.98;94.53;99205.53;5052785;28;20025;-86
2023/08/03 04:39:03;;;;;;;7.57;3.00;;;;;;;16.99;93.79;99212.53;5039946;28;20030;-85
2023/08/03 04:41:28;;;;;;;9.05;2.95;;;;;;;16.99;94.32;99222.38;5045003;28;20060;-87
2023/08/03 04:43:54;;;;;;;6.20;2.83;;;;;;;17.02;94.51;99214.94;5032753;28;20049;-87
2023/08/03 04:46:19;;;;;;;8.23;2.30;;;;;;;17.08;93.61;99210.84;5051546;28;20032;-87
2023/08/03 04:48:44;;;;;;;2.78;1.70;;;;;;;17.13;93.12;99221.94;5046494;28;20358;-86
2023/08/03 04:51:10;;;;;;;4.20;2.25;;;;;;;17.15;92.94;99224.44;5037261;28;20511;-86
2023/08/03 04:53:35;;;;;;;2.70;2.15;;;;;;;17.19;92.58;99225.84;5034190;28;20029;-86
2023/08/03 04:56:01;;;;;;;7.00;2.40;;;;;;;17.18;92.41;99227.69;5039966;28;20021;-86
2023/08/03 04:58:26;;;;;;;5.72;2.60;;;;;;;17.17;92.86;99236.69;5055541;28;20029;-85
2023/08/03 05:00:51;;;;;;;3.20;1.80;;;;;;;17.17;91.80;99239.38;5047955;28;20012;-86
2023/08/03 05:03:17;;;;;;;3.05;1.98;;;;;;;17.21;91.85;99229.25;5049193;28;20032;-86
2023/08/03 05:05:42;;;;;;;6.20;2.10;;;;;;;17.19;91.22;99232.03;5035260;28;20098;-84
2023/08/03 05:08:07;;;;;;;2.85;2.15;;;;;;;17.22;91.06;99237.09;5050133;28;20025;-87
2023/08/03 05:10:32;;;;;;;2.97;1.85;;;;;;;17.27;90.95;99239.34;5046189;28;20024;-87
2023/08/03 05:12:58;;;;;;;4.07;2.33;;;;;;;17.28;90.91;99241.84;5049276;28;20068;-86
2023/08/03 05:15:23;;;;;;;4.28;2.10;;;;;;;17.31;90.82;99262.94;5036946;28;20032;-86
2023/08/03 05:17:49;;;;;;;4.15;1.90;;;;;;;17.34;90.21;99251.13;5043204;28;20504;-86
2023/08/03 05:20:15;;;;;;;4.90;1.80;;;;;;;17.34;90.12;99254.63;5047569;28;20029;-85
2023/08/03 05:22:40;;;;;;;4.30;2.15;;;;;;;17.34;90.37;99257.31;5044242;28;20412;-86
2023/08/03 05:25:06;;;;;;;4.88;2.00;;;;;;;17.38;89.69;99257.03;5051939;28;20419;-86
2023/08/03 05:27:31;;;;;;;2.55;1.70;;;;;;;17.39;89.72;99272.91;5047926;28;20028;-86
2023/08/03 05:29:58;;;;;;;2.88;1.60;;;;;;;17.39;89.61;99277.41;5052668;28;20016;-86
2023/08/03 05:32:26;;;;;;;6.53;1.63;;;;;;;17.41;89.94;99286.97;5051132;28;20016;-85
2023/08/03 05:34:52;;;;;;;4.70;1.65;;;;;;;17.45;89.18;99290.22;5039675;28;20039;-85
2023/08/03 05:37:17;;;;;;;5.05;1.60;;;;;;;17.42;89.49;99295.84;5041903;28;20025;-85
2023/08/03 05:39:43;;;;;;;4.10;1.30;;;;;;;17.47;88.92;99291.75;5044810;28;20086;-85
2023/08/03 05:42:12;;;;;;;1.88;0.98;;;;;;;17.33;89.44;99285.00;5045655;28;20041;-86
2023/08/03 05:44:37;;;;;;;6.65;1.67;;;;;;;17.46;89.18;99298.06;5041963;28;20044;-85
2023/08/03 05:47:02;;;;;;;3.80;1.50;;;;;;;17.52;89.27;99315.34;5040852;28;20476;-85
2023/08/03 05:49:28;;;;;;;4.35;1.55;;;;;;;17.58;88.44;99312.13;5031883;28;20589;-86
2023/08/03 05:51:53;;;;;;;4.53;1.55;;;;;;;17.63;88.88;99322.41;5047179;28;20868;-86
2023/08/03 05:54:19;;;;;;;4.82;1.60;;;;;;;17.65;88.71;99313.22;5036724;28;20037;-86
2023/08/03 05:56:46;;;;;;;4.00;1.73;;;;;;;17.70;88.44;99335.00;5048035;28;20039;-85
2023/08/03 05:59:22;;;;;;;4.68;1.75;;;;;;;17.68;87.99;99331.66;5041261;28;20480;-85
2023/08/03 06:01:49;;;;;;;4.53;1.65;;;;;;;17.66;87.80;99335.44;5052698;28;20599;-85
2023/08/03 06:04:16;;;;;;;5.68;1.98;;;;;;;17.60;88.09;99332.38;5036124;28;20033;-85
2023/08/03 06:06:42;;;;;;;6.30;1.58;;;;;;;17.64;87.78;99340.94;5037824;28;20511;-85
2023/08/03 06:09:11;;;;;;;4.05;1.50;;;;;;;17.63;88.11;99349.97;5047016;28;20147;-86
2023/08/03 06:11:36;;;;;;;3.88;1.65;;;;;;;17.62;88.44;99353.59;5048435;28;20543;-85
2023/08/03 06:14:02;;;;;;;6.70;2.20;;;;;;;17.63;87.41;99357.13;5045043;28;20100;-85
2023/08/03 06:16:27;;;;;;;6.25;1.75;;;;;;;17.66;87.22;99341.63;5048898;28;20112;-86
2023/08/03 06:18:59;;;;;;;4.28;1.77;;;;;;;17.76;87.10;99347.81;5035218;28;20029;-85
2023/08/03 06:21:26;;;;;;;5.90;1.50;;;;;;;17.83;86.30;99369.50;5052747;28;20146;-85
2023/08/03 06:23:53;;;;;;;6.88;1.55;;;;;;;17.83;85.84;99365.00;5055113;28;20074;-85
2023/08/03 06:26:20;;;;;;;5.05;1.35;;;;;;;17.88;85.00;99363.72;5053454;28;20036;-85
2023/08/03 06:28:47;;;;;;;2.53;1.20;;;;;;;18.01;84.78;99372.28;5050804;28;20029;-85
2023/08/03 06:31:14;;;;;;;3.00;1.20;;;;;;;18.09;84.50;99381.25;5042902;28;20037;-85
2023/08/03 06:33:41;;;;;;;5.30;1.33;;;;;;;18.00;84.57;99367.91;5045152;28;20392;-85
2023/08/03 06:36:08;;;;;;;7.43;1.95;;;;;;;18.01;84.64;99381.13;5047574;28;20029;-86
2023/08/03 06:38:35;;;;;;;9.63;1.90;;;;;;;17.95;85.71;99391.56;5033715;28;20033;-85
2023/08/03 06:41:01;;;;;;;8.32;2.67;;;;;;;17.89;86.49;99381.44;5047386;28;20146;-85
2023/08/03 06:43:26;;;;;;;6.93;1.77;;;;;;;17.85;86.55;99387.06;5056087;28;20092;-85
2023/08/03 06:45:52;;;;;;;6.05;1.50;;;;;;;17.90;86.72;99402.69;5053918;28;20115;-86
2023/08/03 06:48:17;;;;;;;6.15;1.52;;;;;;;17.85;86.97;99403.09;5038802;28;20496;-85
2023/08/03 06:50:43;;;;;;;5.18;1.95;;;;;;;17.90;87.33;99394.66;5037841;28;20081;-86
2023/08/03 06:53:09;;;;;;;6.80;1.80;;;;;;;18.04;86.75;99398.72;5038723;28;20058;-85
2023/08/03 06:55:34;;;;;;;4.78;1.92;;;;;;;18.23;85.04;99403.16;5043811;28;20063;-86
2023/08/03 06:57:59;;;;;;;6.63;1.88;;;;;;;18.34;85.43;99413.72;5043225;28;20021;-85
2023/08/03 07:00:26;;;;;;;5.72;1.55;;;;;;;18.42;83.44;99418.31;5048047;28;20040;-84
2023/08/03 07:02:52;;;;;;;6.15;1.55;;;;;;;18.45;83.39;99421.53;5039153;28;20107;-86
2023/08/03 07:05:17;;;;;;;4.28;1.50;;;;;;;18.42;83.16;99412.94;5035576;28;20933;-86
2023/08/03 07:07:42;;;;;;;7.40;1.58;;;;;;;18.50;82.74;99421.09;5053092;28;20063;-85
2023/08/03 07:10:08;;;;;;;6.10;1.58;;;;;;;18.47;82.32;99434.78;5054811;28;20582;-85
2023/08/03 07:12:34;;;;;;;3.35;1.00;;;;;;;18.47;82.37;99429.44;5051150;28;20032;-86
2023/08/03 07:15:00;;;;;;;2.35;1.23;;;;;;;18.57;81.46;99441.78;5045741;28;20033;-86
2023/08/03 07:17:25;;;;;;;2.42;1.00;;;;;;;18.69;80.99;99442.47;5041338;28;20025;-86
2023/08/03 07:19:51;;;;;;;4.80;1.00;;;;;;;18.76;80.91;99456.13;5051652;28;20113;-85
2023/08/03 07:22:24;;;;;;;5.20;1.13;;;;;;;18.80;79.98;99449.47;5044492;28;20032;-85
2023/08/03 07:24:49;;;;;;;5.20;1.48;;;;;;;18.91;79.08;99475.22;5038888;28;20496;-85
2023/08/03 07:27:15;;;;;;;3.90;1.27;;;;;;;18.82;79.83;99461.72;5035196;28;20025;-84
2023/08/03 07:29:41;;;;;;;3.45;1.20;;;;;;;18.79;79.17;99456.66;5041001;28;20023;-85
2023/08/03 07:32:07;;;;;;;3.65;1.35;;;;;;;18.76;78.96;99462.31;5047326;28;20480;-85
2023/08/03 07:34:32;;;;;;;6.32;1.38;;;;;;;18.86;79.01;99464.94;5037318;28;20026;-85
2023/08/03 07:36:58;;;;;;;6.38;1.50;;;;;;;18.90;78.65;99465.50;5034924;28;20505;-84
2023/08/03 07:39:23;;;;;;;5.00;1.50;;;;;;;18.94;78.71;99472.25;5029316;28;20032;-85
2023/08/03 07:41:49;;;;;;;6.18;1.20;;;;;;;18.94;77.87;99466.88;5053046;28;20073;-86
2023/08/03 07:44:16;;;;;;;5.65;1.50;;;;;;;19.03;77.75;99464.16;5040848;28;20456;-84
2023/08/03 07:46:41;;;;;;;6.13;1.35;;;;;;;19.02;78.57;99464.28;5038838;28;20021;-85
2023/08/03 07:49:06;;;;;;;5.00;1.52;;;;;;;18.94;77.69;99474.94;5033316;28;20369;-85
2023/08/03 07:51:32;;;;;;;6.30;1.50;;;;;;;18.90;78.74;99476.22;5040589;28;20056;-84
2023/08/03 07:53:57;;;;;;;6.25;1.55;;;;;;;18.82;78.87;99499.19;5041713;28;20023;-85
2023/08/03 07:56:22;;;;;;;9.07;1.90;;;;;;;18.65;78.80;99491.06;5034939;28;20074;-84
2023/08/03 07:58:50;;;;;;;6.53;1.67;;;;;;;18.60;79.38;99497.72;5036897;28;20779;-84
2023/08/03 08:01:15;;;;;;;8.55;1.40;;;;;;;18.57;80.10;99502.50;5035444;28;20467;-84
2023/08/03 08:03:41;;;;;;;7.32;1.70;;;;;;;18.45;80.58;99506.34;5031803;28;20071;-84
2023/08/03 08:06:13;;;;;;;7.30;2.20;;;;;;;18.45;80.87;99515.19;5036432;28;20029;-85
2023/08/03 08:08:39;;;;;;;5.17;1.30;;;;;;;18.44;81.61;99521.56;5033818;28;20354;-85
2023/08/03 08:11:05;;;;;;;4.15;1.70;;;;;;;18.47;82.25;99531.13;5028948;28;20034;-84
2023/08/03 08:13:31;;;;;;;6.65;1.60;;;;;;;18.47;82.51;99547.19;5035487;28;20021;-84
2023/08/03 08:16:01;;;;;;;5.88;1.30;;;;;;;18.39;82.46;99539.03;5033617;28;20025;-86
2023/08/03 08:18:27;;;;;;;5.45;1.52;;;;;;;18.36;82.44;99541.00;5038542;28;20029;-84
2023/08/03 08:21:00;;;;;;;5.68;1.52;;;;;;;18.31;83.61;99550.44;5039567;28;20037;-86
2023/08/03 08:23:25;;;;;;;4.65;1.80;;;;;;;18.35;84.06;99559.88;5039101;28;20155;-84
2023/08/03 08:25:51;;;;;;;7.45;2.00;;;;;;;18.48;83.99;99551.56;5042769;28;20108;-84
2023/08/03 08:28:16;;;;;;;5.47;1.50;;;;;;;18.74;82.31;99567.84;5034780;28;20104;-84
2023/08/03 08:30:41;;;;;;;7.32;1.50;;;;;;;18.79;81.35;99570.94;5028872;28;20029;-84
2023/08/03 08:33:07;;;;;;;5.63;1.60;;;;;;;18.81;80.63;99575.19;5030355;28;20028;-81
2023/08/03 08:35:33;;;;;;;3.75;1.60;;;;;;;18.66;80.86;99575.75;5046437;28;20020;-82
2023/08/03 08:38:04;;;;;;;6.90;1.55;;;;;;;18.67;81.71;99583.63;5041229;28;20450;-84
2023/08/03 08:40:30;;;;;;;5.30;1.52;;;;;;;18.66;81.54;99584.63;5038036;28;20037;-83
2023/08/03 08:42:56;;;;;;;7.18;1.10;;;;;;;18.66;80.08;99592.66;5032227;28;20085;-83
2023/08/03 08:45:21;;;;;;;6.50;1.35;;;;;;;18.54;80.74;99600.00;5036396;28;20724;-83
2023/08/03 08:47:47;;;;;;;5.50;1.58;;;;;;;18.56;80.75;99610.56;5046369;28;20032;-83
2023/08/03 08:50:12;;;;;;;7.97;1.20;;;;;;;18.55;80.78;99598.16;5033139;28;20040;-84
2023/08/03 08:52:44;;;;;;;4.35;1.20;;;;;;;18.48;81.10;99611.28;5034738;28;20021;-82
2023/08/03 08:55:20;;;;;;;4.63;1.23;;;;;;;18.47;81.52;99617.63;5037718;28;20661;-83
2023/08/03 08:57:45;;;;;;;7.55;1.52;;;;;;;18.47;81.29;99620.31;5046779;28;20017;-83
2023/08/03 09:00:12;;;;;;;3.40;1.10;;;;;;;18.44;81.52;99627.75;5043374;28;20526;-85
2023/08/03 09:02:37;;;;;;;6.10;0.98;;;;;;;18.46;81.50;99647.19;5039221;28;20033;-84
2023/08/03 09:05:17;;;;;;;6.80;1.20;;;;;;;18.50;81.45;99633.38;5032350;28;20045;-85
2023/08/03 09:07:43;;;;;;;3.03;0.98;;;;;;;18.63;81.95;99645.63;5037500;28;20436;-85
2023/08/03 09:10:09;;;;;;;3.17;1.00;;;;;;;18.61;80.87;99635.94;5037821;28;20025;-83
2023/08/03 09:12:37;;;;;;;3.60;1.10;;;;;;;18.65;81.55;99649.84;5031715;28;20041;-83
2023/08/03 09:15:03;;;;;;;3.25;1.08;;;;;;;18.77;81.21;99656.78;5023968;28;20024;-83
2023/08/03 09:17:28;;;;;;;3.03;1.15;;;;;;;18.79;81.51;99664.66;5033076;28;20400;-82
2023/08/03 09:19:54;;;;;;;2.05;0.98;;;;;;;18.76;81.30;99664.97;5034731;28;20464;-84
2023/08/03 09:22:24;;;;;;;2.95;1.00;;;;;;;18.76;81.43;99681.03;5041915;28;20025;-82
2023/08/03 09:25:19;;;;;;;4.97;1.30;;;;;;;18.83;81.36;99691.00;5040836;28;20046;-85
2023/08/03 09:27:49;;;;;;;2.20;0.93;;;;;;;18.84;81.12;99683.84;5036109;28;20091;-88
2023/08/03 09:30:14;;;;;;;3.30;1.25;;;;;;;18.95;80.92;99689.03;5033913;28;20036;-84
2023/08/03 09:32:40;;;;;;;3.50;1.15;;;;;;;18.99;81.20;99694.97;5052374;28;20387;-84
2023/08/03 09:35:16;;;;;;;2.53;1.00;;;;;;;19.15;81.09;99702.41;5023686;28;20055;-83
2023/08/03 09:37:42;;;;;;;4.82;1.33;;;;;;;19.17;80.82;99701.28;5037829;28;20040;-83
2023/08/03 09:40:07;;;;;;;3.10;0.98;;;;;;;19.15;80.90;99711.28;5033651;28;20029;-83
2023/08/03 09:42:35;;;;;;;2.60;1.10;;;;;;;19.27;81.11;99714.66;5055411;28;20765;-83
2023/08/03 09:45:02;;;;;;;2.30;1.20;;;;;;;19.17;80.13;99725.38;5053188;28;20133;-83
2023/08/03 09:47:30;;;;;;;4.68;1.27;;;;;;;19.33;80.02;99727.47;5035794;28;20033;-83
2023/08/03 09:49:56;;;;;;;4.45;1.30;;;;;;;19.50;79.26;99739.28;5039465;28;20075;-84
2023/08/03 09:52:25;;;;;;;4.15;1.20;;;;;;;19.57;78.07;99737.69;5037084;28;20021;-83
2023/08/03 09:55:13;;;;;;;5.28;1.40;;;;;;;19.57;79.21;99748.41;5037269;28;20021;-85
2023/08/03 09:57:45;;;;;;;8.90;1.88;;;;;;;19.46;79.24;99745.91;5037261;28;20033;-84
2023/08/03 10:00:11;;;;;;;3.42;1.48;;;;;;;19.45;79.12;99752.28;5040897;28;20037;-83
2023/08/03 10:02:51;;;;;;;4.45;1.80;;;;;;;19.54;79.56;99759.44;5033514;28;20595;-85
2023/08/03 10:05:19;;;;;;;8.07;1.88;;;;;;;19.60;79.39;99764.25;5038752;28;20030;-85
2023/08/03 10:07:59;;;;;;;4.97;1.80;;;;;;;19.90;79.51;99763.13;5041935;28;20049;-85
2023/08/03 10:10:27;;;;;;;5.20;1.88;;;;;;;20.31;78.05;99769.84;5043580;28;20062;-84
2023/08/03 10:12:59;;;;;;;4.90;1.50;;;;;;;20.50;76.36;99770.75;5037762;28;20158;-84
2023/08/03 10:15:24;;;;;;;;;;;;;;;20.55;76.37;99781.88;5032264;28;20033;-85
2023/08/03 10:17:51;;;;;;;7.03;2.00;;;;;;;20.43;75.55;99783.94;5051754;28;20030;-83
2023/08/03 10:20:16;;;;;;;5.35;1.90;;;;;;;20.47;75.86;99790.72;5045464;28;20056;-83
2023/08/03 10:23:11;;;;;;;7.47;2.17;;;;;;;20.72;76.54;99799.88;5040531;28;20017;-84
2023/08/03 10:26:00;;;;;;;5.13;1.90;;;;;;;21.25;74.62;99796.31;5037460;28;20048;-83
2023/08/03 10:28:25;;;;;;;8.85;1.88;;;;;;;21.61;72.98;99796.28;5038810;28;20025;-82
2023/08/03 10:31:14;;;;;;;6.63;2.10;;;;;;;22.13;73.49;99796.25;5030747;28;20063;-82
2023/08/03 10:33:45;;;;;;;4.35;1.80;;;;;;;21.88;72.32;99797.97;5040554;28;20041;-81
2023/08/03 10:36:35;;;;;;;3.92;1.95;;;;;;;21.72;73.30;99790.63;5039631;28;20029;-82
2023/08/03 10:39:12;;;;;;;5.82;1.60;;;;;;;21.80;72.78;99796.06;5036089;28;20029;-82
2023/08/03 10:41:40;;;;;;;3.92;1.70;;;;;;;21.64;72.31;99802.19;5035672;28;20029;-83
2023/08/03 10:44:05;;;;;;;4.65;1.60;;;;;;;21.52;72.71;99807.97;5038592;28;20048;-83
2023/08/03 10:46:40;;;;;;;3.73;1.30;;;;;;;21.32;73.72;99818.94;5037730;28;20033;-83
2023/08/03 10:49:18;;;;;;;3.65;1.38;;;;;;;21.22;73.19;99825.38;5038165;28;20039;-84
2023/08/03 10:51:47;;;;;;;5.28;1.65;;;;;;;20.95;73.14;99823.59;5039295;28;20025;-83
2023/08/03 10:54:13;;;;;;;4.38;1.30;;;;;;;20.89;73.43;99825.91;5041301;28;20032;-83
2023/08/03 10:56:38;;;;;;;7.75;1.77;;;;;;;20.93;74.20;99839.03;5047032;28;20072;-84
2023/08/03 10:59:04;;;;;;;6.63;2.47;;;;;;;20.85;73.68;99842.50;5038319;28;20017;-84
2023/08/03 11:01:30;;;;;;;4.32;1.45;;;;;;;20.93;73.92;99830.97;5049023;28;20024;-83
2023/08/03 11:03:56;;;;;;;5.78;2.03;;;;;;;21.21;72.86;99839.78;5037614;28;20029;-83
2023/08/03 11:06:22;;;;;;;5.53;1.60;;;;;;;21.50;72.49;99843.13;5042543;28;20016;-84
2023/08/03 11:08:47;;;;;;;5.70;2.10;;;;;;;21.63;71.51;99842.69;5036062;28;20053;-83
2023/08/03 11:11:14;;;;;;;4.35;1.58;;;;;;;21.53;72.38;99850.00;5041480;28;20538;-83
2023/08/03 11:13:42;;;;;;;7.82;1.95;;;;;;;21.20;71.33;99852.38;5047736;28;20484;-83
2023/08/03 11:16:07;;;;;;;6.38;1.60;;;;;;;20.97;73.83;99861.91;5040168;28;20045;-83
2023/08/03 11:18:35;;;;;;;5.80;1.80;;;;;;;20.82;74.12;99869.66;5040643;28;20135;-83
2023/08/03 11:21:01;;;;;;;6.93;2.53;;;;;;;20.83;73.68;99871.34;5041474;28;20078;-83
2023/08/03 11:23:30;;;;;;;4.78;2.08;;;;;;;21.04;73.94;99873.75;5045763;28;20033;-83
2023/08/03 11:25:57;;;;;;;9.07;2.30;;;;;;;21.24;72.62;99877.97;5038176;28;20404;-83
2023/08/03 11:28:22;;;;;;;4.47;2.00;;;;;;;21.11;74.14;99885.56;5044807;28;20108;-84
2023/08/03 11:30:47;;;;;;;5.20;2.00;;;;;;;20.72;74.33;99869.72;5036949;28;20128;-84